sensor_id;sensor_type;location;lat;lon;timestamp;temperature;humidity
41668;DHT22;27356;50.920;5.350;2022-08-30T00:01:28;18.00;91.60
41668;DHT22;27356;50.920;5.350;2022-08-30T00:03:54;18.00;91.70
41668;DHT22;27356;50.920;5.350;2022-08-30T00:06:19;18.00;91.60
41668;DHT22;27356;50.920;5.350;2022-08-30T00:08:45;18.10;91.50
41668;DHT22;27356;50.920;5.350;2022-08-30T00:11:14;18.00;91.70
41668;DHT22;27356;50.920;5.350;2022-08-30T00:13:41;18.00;91.60
41668;DHT22;27356;50.920;5.350;2022-08-30T00:16:07;18.00;91.90
41668;DHT22;27356;50.920;5.350;2022-08-30T00:18:33;17.90;92.00
41668;DHT22;27356;50.920;5.350;2022-08-30T00:20:58;18.10;91.80
41668;DHT22;27356;50.920;5.350;2022-08-30T00:23:24;18.10;91.60
41668;DHT22;27356;50.920;5.350;2022-08-30T00:25:50;18.10;92.00
41668;DHT22;27356;50.920;5.350;2022-08-30T00:28:16;18.10;91.70
41668;DHT22;27356;50.920;5.350;2022-08-30T00:30:41;18.10;91.70
41668;DHT22;27356;50.920;5.350;2022-08-30T00:33:07;18.00;91.90
41668;DHT22;27356;50.920;5.350;2022-08-30T00:35:33;18.20;91.70
41668;DHT22;27356;50.920;5.350;2022-08-30T00:37:59;18.30;91.70
41668;DHT22;27356;50.920;5.350;2022-08-30T00:40:24;18.30;91.60
41668;DHT22;27356;50.920;5.350;2022-08-30T00:42:50;18.30;91.80
41668;DHT22;27356;50.920;5.350;2022-08-30T00:45:18;18.30;91.70
41668;DHT22;27356;50.920;5.350;2022-08-30T00:47:44;18.40;91.50
41668;DHT22;27356;50.920;5.350;2022-08-30T00:50:10;18.40;91.60
41668;DHT22;27356;50.920;5.350;2022-08-30T00:52:37;18.40;91.50
41668;DHT22;27356;50.920;5.350;2022-08-30T00:55:05;18.40;91.80
41668;DHT22;27356;50.920;5.350;2022-08-30T00:57:31;18.20;92.10
41668;DHT22;27356;50.920;5.350;2022-08-30T00:59:58;18.20;92.20
41668;DHT22;27356;50.920;5.350;2022-08-30T01:02:24;18.20;92.40
41668;DHT22;27356;50.920;5.350;2022-08-30T01:04:50;18.20;92.20
41668;DHT22;27356;50.920;5.350;2022-08-30T01:07:17;18.30;92.20
41668;DHT22;27356;50.920;5.350;2022-08-30T01:09:42;18.40;91.90
41668;DHT22;27356;50.920;5.350;2022-08-30T01:12:08;18.30;92.20
41668;DHT22;27356;50.920;5.350;2022-08-30T01:14:34;18.20;92.40
41668;DHT22;27356;50.920;5.350;2022-08-30T01:16:59;18.10;92.50
41668;DHT22;27356;50.920;5.350;2022-08-30T01:22:07;18.10;92.60
41668;DHT22;27356;50.920;5.350;2022-08-30T01:24:34;18.00;92.90
41668;DHT22;27356;50.920;5.350;2022-08-30T01:27:00;17.80;93.30
41668;DHT22;27356;50.920;5.350;2022-08-30T01:29:26;17.70;93.60
41668;DHT22;27356;50.920;5.350;2022-08-30T01:31:51;17.60;93.80
41668;DHT22;27356;50.920;5.350;2022-08-30T01:34:17;17.50;93.90
41668;DHT22;27356;50.920;5.350;2022-08-30T01:36:43;17.50;94.00
41668;DHT22;27356;50.920;5.350;2022-08-30T01:39:11;17.40;94.50
41668;DHT22;27356;50.920;5.350;2022-08-30T01:41:37;17.30;94.70
41668;DHT22;27356;50.920;5.350;2022-08-30T01:44:04;17.30;94.70
41668;DHT22;27356;50.920;5.350;2022-08-30T01:46:32;17.30;94.80
41668;DHT22;27356;50.920;5.350;2022-08-30T01:49:00;17.20;95.10
41668;DHT22;27356;50.920;5.350;2022-08-30T01:51:28;17.10;95.50
41668;DHT22;27356;50.920;5.350;2022-08-30T01:53:53;17.00;95.70
41668;DHT22;27356;50.920;5.350;2022-08-30T01:56:19;17.00;96.10
41668;DHT22;27356;50.920;5.350;2022-08-30T01:58:45;17.10;96.00
41668;DHT22;27356;50.920;5.350;2022-08-30T02:01:12;17.10;95.90
41668;DHT22;27356;50.920;5.350;2022-08-30T02:03:39;17.00;96.20
41668;DHT22;27356;50.920;5.350;2022-08-30T02:06:05;17.00;96.30
41668;DHT22;27356;50.920;5.350;2022-08-30T02:08:31;16.90;96.30
41668;DHT22;27356;50.920;5.350;2022-08-30T02:10:57;16.90;96.30
41668;DHT22;27356;50.920;5.350;2022-08-30T02:13:25;16.90;96.30
41668;DHT22;27356;50.920;5.350;2022-08-30T02:15:50;16.90;96.50
41668;DHT22;27356;50.920;5.350;2022-08-30T02:18:16;16.90;96.70
41668;DHT22;27356;50.920;5.350;2022-08-30T02:20:41;16.80;97.00
41668;DHT22;27356;50.920;5.350;2022-08-30T02:23:07;16.80;97.40
41668;DHT22;27356;50.920;5.350;2022-08-30T02:25:32;16.80;97.70
41668;DHT22;27356;50.920;5.350;2022-08-30T02:27:58;16.70;97.80
41668;DHT22;27356;50.920;5.350;2022-08-30T02:30:23;16.70;97.50
41668;DHT22;27356;50.920;5.350;2022-08-30T02:32:49;16.80;97.40
41668;DHT22;27356;50.920;5.350;2022-08-30T02:35:14;16.70;98.30
41668;DHT22;27356;50.920;5.350;2022-08-30T02:37:40;16.60;98.40
41668;DHT22;27356;50.920;5.350;2022-08-30T02:40:06;16.60;98.60
41668;DHT22;27356;50.920;5.350;2022-08-30T02:42:32;16.60;98.50
41668;DHT22;27356;50.920;5.350;2022-08-30T02:44:58;16.60;98.50
41668;DHT22;27356;50.920;5.350;2022-08-30T02:47:24;16.60;98.70
41668;DHT22;27356;50.920;5.350;2022-08-30T02:49:50;16.70;99.10
41668;DHT22;27356;50.920;5.350;2022-08-30T02:52:15;16.90;99.00
41668;DHT22;27356;50.920;5.350;2022-08-30T02:54:41;16.80;99.10
41668;DHT22;27356;50.920;5.350;2022-08-30T02:57:06;16.70;99.30
41668;DHT22;27356;50.920;5.350;2022-08-30T02:59:33;16.60;99.90
41668;DHT22;27356;50.920;5.350;2022-08-30T03:02:01;16.50;99.90
41668;DHT22;27356;50.920;5.350;2022-08-30T03:04:26;16.40;99.90
41668;DHT22;27356;50.920;5.350;2022-08-30T03:06:52;16.40;99.90
41668;DHT22;27356;50.920;5.350;2022-08-30T03:09:17;16.40;99.90
41668;DHT22;27356;50.920;5.350;2022-08-30T03:11:43;16.50;99.90
41668;DHT22;27356;50.920;5.350;2022-08-30T03:14:09;16.40;99.90
41668;DHT22;27356;50.920;5.350;2022-08-30T03:16:35;16.30;99.90
41668;DHT22;27356;50.920;5.350;2022-08-30T03:19:00;16.40;99.90
41668;DHT22;27356;50.920;5.350;2022-08-30T03:21:26;16.60;99.90
41668;DHT22;27356;50.920;5.350;2022-08-30T03:23:52;16.70;99.90
41668;DHT22;27356;50.920;5.350;2022-08-30T03:26:17;16.80;99.90
41668;DHT22;27356;50.920;5.350;2022-08-30T03:28:43;16.80;99.90
41668;DHT22;27356;50.920;5.350;2022-08-30T03:31:08;16.80;99.90
41668;DHT22;27356;50.920;5.350;2022-08-30T03:33:34;16.80;99.90
41668;DHT22;27356;50.920;5.350;2022-08-30T03:36:00;16.70;99.90
41668;DHT22;27356;50.920;5.350;2022-08-30T03:38:26;16.80;99.90
41668;DHT22;27356;50.920;5.350;2022-08-30T03:40:51;17.00;99.90
41668;DHT22;27356;50.920;5.350;2022-08-30T03:43:17;17.00;99.90
41668;DHT22;27356;50.920;5.350;2022-08-30T03:45:42;17.10;99.90
41668;DHT22;27356;50.920;5.350;2022-08-30T03:48:09;17.00;99.90
41668;DHT22;27356;50.920;5.350;2022-08-30T03:50:34;17.10;99.90
41668;DHT22;27356;50.920;5.350;2022-08-30T03:53:01;17.00;99.90
41668;DHT22;27356;50.920;5.350;2022-08-30T03:55:27;17.00;99.90
41668;DHT22;27356;50.920;5.350;2022-08-30T03:57:53;17.00;99.90
41668;DHT22;27356;50.920;5.350;2022-08-30T04:00:18;17.20;99.90
41668;DHT22;27356;50.920;5.350;2022-08-30T04:02:47;17.20;99.90
41668;DHT22;27356;50.920;5.350;2022-08-30T04:05:12;17.20;99.90
41668;DHT22;27356;50.920;5.350;2022-08-30T04:07:38;17.40;99.90
41668;DHT22;27356;50.920;5.350;2022-08-30T04:10:04;17.40;99.90
41668;DHT22;27356;50.920;5.350;2022-08-30T04:12:30;17.40;99.90
41668;DHT22;27356;50.920;5.350;2022-08-30T04:14:56;17.40;99.90
41668;DHT22;27356;50.920;5.350;2022-08-30T04:17:22;17.40;99.90
41668;DHT22;27356;50.920;5.350;2022-08-30T04:19:48;17.20;99.90
41668;DHT22;27356;50.920;5.350;2022-08-30T04:22:13;17.20;99.90
41668;DHT22;27356;50.920;5.350;2022-08-30T04:24:39;17.20;99.90
41668;DHT22;27356;50.920;5.350;2022-08-30T04:27:06;17.10;99.90
41668;DHT22;27356;50.920;5.350;2022-08-30T04:29:32;17.00;99.90
41668;DHT22;27356;50.920;5.350;2022-08-30T04:31:57;17.20;99.90
41668;DHT22;27356;50.920;5.350;2022-08-30T04:34:23;17.30;99.90
41668;DHT22;27356;50.920;5.350;2022-08-30T04:36:48;17.30;99.90
41668;DHT22;27356;50.920;5.350;2022-08-30T04:39:14;17.20;99.90
41668;DHT22;27356;50.920;5.350;2022-08-30T04:41:40;17.20;99.90
41668;DHT22;27356;50.920;5.350;2022-08-30T04:44:06;17.30;99.90
41668;DHT22;27356;50.920;5.350;2022-08-30T04:46:32;17.30;99.90
41668;DHT22;27356;50.920;5.350;2022-08-30T04:48:58;17.30;99.90
41668;DHT22;27356;50.920;5.350;2022-08-30T04:51:23;17.40;99.90
41668;DHT22;27356;50.920;5.350;2022-08-30T04:53:49;17.50;99.90
41668;DHT22;27356;50.920;5.350;2022-08-30T04:56:16;17.40;99.90
41668;DHT22;27356;50.920;5.350;2022-08-30T04:58:43;17.30;99.90
41668;DHT22;27356;50.920;5.350;2022-08-30T05:01:13;17.20;99.90
41668;DHT22;27356;50.920;5.350;2022-08-30T05:03:39;17.30;99.90
41668;DHT22;27356;50.920;5.350;2022-08-30T05:06:04;17.40;99.90
41668;DHT22;27356;50.920;5.350;2022-08-30T05:08:30;17.30;99.90
41668;DHT22;27356;50.920;5.350;2022-08-30T05:10:55;17.40;99.90
41668;DHT22;27356;50.920;5.350;2022-08-30T05:13:21;17.50;99.90
41668;DHT22;27356;50.920;5.350;2022-08-30T05:15:47;17.50;99.90
41668;DHT22;27356;50.920;5.350;2022-08-30T05:18:12;17.50;99.90
41668;DHT22;27356;50.920;5.350;2022-08-30T05:20:38;17.60;99.90
41668;DHT22;27356;50.920;5.350;2022-08-30T05:23:04;17.60;99.90
41668;DHT22;27356;50.920;5.350;2022-08-30T05:25:36;17.60;99.90
41668;DHT22;27356;50.920;5.350;2022-08-30T05:28:02;17.70;99.90
41668;DHT22;27356;50.920;5.350;2022-08-30T05:30:30;17.80;99.90
41668;DHT22;27356;50.920;5.350;2022-08-30T05:32:56;17.70;99.90
41668;DHT22;27356;50.920;5.350;2022-08-30T05:35:22;17.70;99.90
41668;DHT22;27356;50.920;5.350;2022-08-30T05:37:47;18.00;99.90
41668;DHT22;27356;50.920;5.350;2022-08-30T05:40:16;18.10;99.90
41668;DHT22;27356;50.920;5.350;2022-08-30T05:42:42;18.20;99.90
41668;DHT22;27356;50.920;5.350;2022-08-30T05:45:08;18.30;99.90
41668;DHT22;27356;50.920;5.350;2022-08-30T05:47:35;18.70;99.90
41668;DHT22;27356;50.920;5.350;2022-08-30T05:50:00;18.90;99.90
41668;DHT22;27356;50.920;5.350;2022-08-30T05:52:26;18.80;99.90
41668;DHT22;27356;50.920;5.350;2022-08-30T05:54:53;18.80;99.90
41668;DHT22;27356;50.920;5.350;2022-08-30T05:57:18;18.70;99.90
41668;DHT22;27356;50.920;5.350;2022-08-30T05:59:44;18.50;99.90
41668;DHT22;27356;50.920;5.350;2022-08-30T06:02:10;18.40;99.90
41668;DHT22;27356;50.920;5.350;2022-08-30T06:04:35;18.60;99.90
41668;DHT22;27356;50.920;5.350;2022-08-30T06:07:01;18.80;99.90
41668;DHT22;27356;50.920;5.350;2022-08-30T06:09:27;19.00;99.90
41668;DHT22;27356;50.920;5.350;2022-08-30T06:11:53;19.40;99.90
41668;DHT22;27356;50.920;5.350;2022-08-30T06:14:19;20.10;99.90
41668;DHT22;27356;50.920;5.350;2022-08-30T06:16:44;20.60;98.70
41668;DHT22;27356;50.920;5.350;2022-08-30T06:19:10;20.70;98.20
41668;DHT22;27356;50.920;5.350;2022-08-30T06:21:37;20.80;97.90
41668;DHT22;27356;50.920;5.350;2022-08-30T06:24:04;20.80;97.50
41668;DHT22;27356;50.920;5.350;2022-08-30T06:26:30;20.60;97.90
41668;DHT22;27356;50.920;5.350;2022-08-30T06:28:56;20.40;98.20
41668;DHT22;27356;50.920;5.350;2022-08-30T06:31:22;20.30;98.30
41668;DHT22;27356;50.920;5.350;2022-08-30T06:33:48;20.30;98.30
41668;DHT22;27356;50.920;5.350;2022-08-30T06:36:15;20.20;98.40
41668;DHT22;27356;50.920;5.350;2022-08-30T06:38:42;20.30;98.40
41668;DHT22;27356;50.920;5.350;2022-08-30T06:41:14;20.20;98.50
41668;DHT22;27356;50.920;5.350;2022-08-30T06:43:40;20.40;98.20
41668;DHT22;27356;50.920;5.350;2022-08-30T06:46:07;20.70;97.60
41668;DHT22;27356;50.920;5.350;2022-08-30T06:48:32;20.90;97.20
41668;DHT22;27356;50.920;5.350;2022-08-30T06:50:58;20.70;97.10
41668;DHT22;27356;50.920;5.350;2022-08-30T06:53:24;20.50;97.40
41668;DHT22;27356;50.920;5.350;2022-08-30T06:55:53;20.30;97.90
41668;DHT22;27356;50.920;5.350;2022-08-30T06:58:19;20.20;98.30
41668;DHT22;27356;50.920;5.350;2022-08-30T07:00:44;20.30;98.00
41668;DHT22;27356;50.920;5.350;2022-08-30T07:03:10;20.30;98.30
41668;DHT22;27356;50.920;5.350;2022-08-30T07:05:36;20.80;97.60
41668;DHT22;27356;50.920;5.350;2022-08-30T07:08:02;21.00;96.90
41668;DHT22;27356;50.920;5.350;2022-08-30T07:10:27;21.30;96.30
41668;DHT22;27356;50.920;5.350;2022-08-30T07:12:53;21.40;96.10
41668;DHT22;27356;50.920;5.350;2022-08-30T07:15:18;21.40;95.80
41668;DHT22;27356;50.920;5.350;2022-08-30T07:17:47;21.80;95.30
41668;DHT22;27356;50.920;5.350;2022-08-30T07:20:31;21.90;95.20
41668;DHT22;27356;50.920;5.350;2022-08-30T07:22:57;22.30;94.20
41668;DHT22;27356;50.920;5.350;2022-08-30T07:25:26;22.50;93.80
41668;DHT22;27356;50.920;5.350;2022-08-30T07:27:54;22.70;93.10
41668;DHT22;27356;50.920;5.350;2022-08-30T07:30:21;23.10;92.40
41668;DHT22;27356;50.920;5.350;2022-08-30T07:32:47;23.70;91.70
41668;DHT22;27356;50.920;5.350;2022-08-30T07:35:13;23.70;91.40
41668;DHT22;27356;50.920;5.350;2022-08-30T07:37:39;24.00;91.00
41668;DHT22;27356;50.920;5.350;2022-08-30T07:40:04;24.20;90.30
41668;DHT22;27356;50.920;5.350;2022-08-30T07:42:30;24.30;89.50
41668;DHT22;27356;50.920;5.350;2022-08-30T07:44:56;24.20;89.70
41668;DHT22;27356;50.920;5.350;2022-08-30T07:47:21;24.50;89.50
41668;DHT22;27356;50.920;5.350;2022-08-30T07:49:47;24.80;87.50
41668;DHT22;27356;50.920;5.350;2022-08-30T07:52:12;24.80;87.60
41668;DHT22;27356;50.920;5.350;2022-08-30T07:54:38;24.90;87.30
41668;DHT22;27356;50.920;5.350;2022-08-30T07:57:03;25.00;86.40
41668;DHT22;27356;50.920;5.350;2022-08-30T07:59:29;25.30;85.30
41668;DHT22;27356;50.920;5.350;2022-08-30T08:01:54;25.50;85.10
41668;DHT22;27356;50.920;5.350;2022-08-30T08:04:20;25.90;83.90
41668;DHT22;27356;50.920;5.350;2022-08-30T08:06:46;25.90;83.70
41668;DHT22;27356;50.920;5.350;2022-08-30T08:09:11;25.60;83.60
41668;DHT22;27356;50.920;5.350;2022-08-30T08:11:37;26.10;83.40
41668;DHT22;27356;50.920;5.350;2022-08-30T08:14:04;26.10;82.50
41668;DHT22;27356;50.920;5.350;2022-08-30T08:16:33;25.80;82.90
41668;DHT22;27356;50.920;5.350;2022-08-30T08:18:59;26.10;81.50
41668;DHT22;27356;50.920;5.350;2022-08-30T08:21:25;26.40;82.10
41668;DHT22;27356;50.920;5.350;2022-08-30T08:23:51;26.70;80.50
41668;DHT22;27356;50.920;5.350;2022-08-30T08:26:18;26.70;80.10
41668;DHT22;27356;50.920;5.350;2022-08-30T08:28:44;26.50;80.40
41668;DHT22;27356;50.920;5.350;2022-08-30T08:31:15;26.40;79.60
41668;DHT22;27356;50.920;5.350;2022-08-30T08:33:41;27.20;79.10
41668;DHT22;27356;50.920;5.350;2022-08-30T08:36:06;27.50;77.80
41668;DHT22;27356;50.920;5.350;2022-08-30T08:38:32;27.00;78.30
41668;DHT22;27356;50.920;5.350;2022-08-30T08:43:42;27.30;76.90
41668;DHT22;27356;50.920;5.350;2022-08-30T08:46:14;27.70;77.10
41668;DHT22;27356;50.920;5.350;2022-08-30T08:48:45;28.20;75.90
41668;DHT22;27356;50.920;5.350;2022-08-30T08:51:14;28.20;74.60
41668;DHT22;27356;50.920;5.350;2022-08-30T08:54:34;28.10;74.60
41668;DHT22;27356;50.920;5.350;2022-08-30T08:56:52;27.50;75.70
41668;DHT22;27356;50.920;5.350;2022-08-30T08:59:17;27.00;76.80
41668;DHT22;27356;50.920;5.350;2022-08-30T09:01:43;27.10;76.70
41668;DHT22;27356;50.920;5.350;2022-08-30T09:04:11;27.50;75.60
41668;DHT22;27356;50.920;5.350;2022-08-30T09:09:02;27.10;76.30
41668;DHT22;27356;50.920;5.350;2022-08-30T09:11:28;27.60;76.40
41668;DHT22;27356;50.920;5.350;2022-08-30T09:13:55;27.60;76.30
41668;DHT22;27356;50.920;5.350;2022-08-30T09:19:04;27.70;75.00
41668;DHT22;27356;50.920;5.350;2022-08-30T09:21:37;27.20;75.60
41668;DHT22;27356;50.920;5.350;2022-08-30T09:24:03;27.10;75.70
41668;DHT22;27356;50.920;5.350;2022-08-30T09:26:30;27.10;76.20
41668;DHT22;27356;50.920;5.350;2022-08-30T09:28:56;26.70;77.40
41668;DHT22;27356;50.920;5.350;2022-08-30T09:31:25;26.80;76.60
41668;DHT22;27356;50.920;5.350;2022-08-30T09:36:26;26.80;76.80
41668;DHT22;27356;50.920;5.350;2022-08-30T09:38:59;26.40;77.60
41668;DHT22;27356;50.920;5.350;2022-08-30T09:41:27;26.20;77.30
41668;DHT22;27356;50.920;5.350;2022-08-30T09:44:10;26.50;77.10
41668;DHT22;27356;50.920;5.350;2022-08-30T09:46:42;26.40;77.00
41668;DHT22;27356;50.920;5.350;2022-08-30T09:49:42;26.10;77.70
41668;DHT22;27356;50.920;5.350;2022-08-30T10:00:18;26.30;77.40
41668;DHT22;27356;50.920;5.350;2022-08-30T10:05:22;26.10;78.40
41668;DHT22;27356;50.920;5.350;2022-08-30T10:10:39;26.30;77.50
41668;DHT22;27356;50.920;5.350;2022-08-30T10:13:15;26.00;78.90
41668;DHT22;27356;50.920;5.350;2022-08-30T10:15:45;26.20;78.00
41668;DHT22;27356;50.920;5.350;2022-08-30T10:18:23;26.20;78.20
41668;DHT22;27356;50.920;5.350;2022-08-30T10:23:41;26.20;77.30
41668;DHT22;27356;50.920;5.350;2022-08-30T10:26:23;26.20;77.70
41668;DHT22;27356;50.920;5.350;2022-08-30T10:28:56;26.40;76.70
41668;DHT22;27356;50.920;5.350;2022-08-30T10:31:25;26.50;76.30
41668;DHT22;27356;50.920;5.350;2022-08-30T10:33:52;26.50;77.30
41668;DHT22;27356;50.920;5.350;2022-08-30T10:36:25;26.60;77.00
41668;DHT22;27356;50.920;5.350;2022-08-30T10:38:51;26.60;76.80
41668;DHT22;27356;50.920;5.350;2022-08-30T10:44:21;26.70;76.10
41668;DHT22;27356;50.920;5.350;2022-08-30T10:49:28;26.70;76.40
41668;DHT22;27356;50.920;5.350;2022-08-30T10:54:42;26.50;76.10
41668;DHT22;27356;50.920;5.350;2022-08-30T10:57:09;26.50;75.90
41668;DHT22;27356;50.920;5.350;2022-08-30T10:59:35;26.40;75.60
41668;DHT22;27356;50.920;5.350;2022-08-30T11:02:15;26.30;76.10
41668;DHT22;27356;50.920;5.350;2022-08-30T11:14:53;26.40;75.60
41668;DHT22;27356;50.920;5.350;2022-08-30T11:17:21;26.30;75.00
41668;DHT22;27356;50.920;5.350;2022-08-30T11:19:48;26.40;74.70
41668;DHT22;27356;50.920;5.350;2022-08-30T11:24:59;26.40;76.20
41668;DHT22;27356;50.920;5.350;2022-08-30T11:27:39;26.20;76.60
41668;DHT22;27356;50.920;5.350;2022-08-30T11:35:34;26.40;76.30
41668;DHT22;27356;50.920;5.350;2022-08-30T11:38:00;26.40;77.70
41668;DHT22;27356;50.920;5.350;2022-08-30T11:42:52;26.30;77.60
41668;DHT22;27356;50.920;5.350;2022-08-30T11:47:47;26.30;77.90
41668;DHT22;27356;50.920;5.350;2022-08-30T11:50:18;26.40;77.50
41668;DHT22;27356;50.920;5.350;2022-08-30T11:57:58;26.30;78.10
41668;DHT22;27356;50.920;5.350;2022-08-30T12:00:35;26.30;78.70
41668;DHT22;27356;50.920;5.350;2022-08-30T12:08:05;26.50;77.70
41668;DHT22;27356;50.920;5.350;2022-08-30T12:16:07;26.80;77.60
41668;DHT22;27356;50.920;5.350;2022-08-30T12:21:02;26.50;76.80
41668;DHT22;27356;50.920;5.350;2022-08-30T12:23:35;26.80;76.30
41668;DHT22;27356;50.920;5.350;2022-08-30T12:26:08;26.90;76.30
41668;DHT22;27356;50.920;5.350;2022-08-30T12:28:34;27.20;76.50
41668;DHT22;27356;50.920;5.350;2022-08-30T12:31:07;27.30;75.00
41668;DHT22;27356;50.920;5.350;2022-08-30T12:33:37;27.10;74.50
41668;DHT22;27356;50.920;5.350;2022-08-30T12:36:04;26.80;75.10
41668;DHT22;27356;50.920;5.350;2022-08-30T12:38:29;26.70;76.00
41668;DHT22;27356;50.920;5.350;2022-08-30T12:40:56;26.90;75.20
41668;DHT22;27356;50.920;5.350;2022-08-30T12:43:46;27.00;74.60
41668;DHT22;27356;50.920;5.350;2022-08-30T12:46:11;27.10;74.30
41668;DHT22;27356;50.920;5.350;2022-08-30T12:48:40;27.20;74.30
41668;DHT22;27356;50.920;5.350;2022-08-30T12:51:06;27.20;74.80
41668;DHT22;27356;50.920;5.350;2022-08-30T12:53:33;27.40;73.80
41668;DHT22;27356;50.920;5.350;2022-08-30T12:58:59;27.10;73.20
41668;DHT22;27356;50.920;5.350;2022-08-30T13:01:28;26.80;73.90
41668;DHT22;27356;50.920;5.350;2022-08-30T13:06:38;26.90;73.70
41668;DHT22;27356;50.920;5.350;2022-08-30T13:09:04;26.90;74.10
41668;DHT22;27356;50.920;5.350;2022-08-30T13:11:29;26.90;73.50
41668;DHT22;27356;50.920;5.350;2022-08-30T13:13:56;26.90;73.50
41668;DHT22;27356;50.920;5.350;2022-08-30T13:16:40;26.70;73.80
41668;DHT22;27356;50.920;5.350;2022-08-30T13:21:51;26.70;73.40
41668;DHT22;27356;50.920;5.350;2022-08-30T13:24:17;26.60;73.60
41668;DHT22;27356;50.920;5.350;2022-08-30T13:26:43;26.70;73.50
41668;DHT22;27356;50.920;5.350;2022-08-30T13:29:20;26.60;73.20
41668;DHT22;27356;50.920;5.350;2022-08-30T13:31:46;26.80;73.00
41668;DHT22;27356;50.920;5.350;2022-08-30T13:34:12;27.00;73.00
41668;DHT22;27356;50.920;5.350;2022-08-30T13:36:56;27.00;72.90
41668;DHT22;27356;50.920;5.350;2022-08-30T13:39:22;27.20;73.50
41668;DHT22;27356;50.920;5.350;2022-08-30T13:41:48;27.00;73.80
41668;DHT22;27356;50.920;5.350;2022-08-30T13:44:13;26.90;74.00
41668;DHT22;27356;50.920;5.350;2022-08-30T13:46:40;26.90;73.80
41668;DHT22;27356;50.920;5.350;2022-08-30T13:49:07;27.00;73.80
41668;DHT22;27356;50.920;5.350;2022-08-30T13:51:34;26.90;73.90
41668;DHT22;27356;50.920;5.350;2022-08-30T13:54:00;26.80;74.80
41668;DHT22;27356;50.920;5.350;2022-08-30T13:56:27;26.70;73.90
41668;DHT22;27356;50.920;5.350;2022-08-30T13:58:59;26.70;74.20
41668;DHT22;27356;50.920;5.350;2022-08-30T14:01:27;26.80;74.50
41668;DHT22;27356;50.920;5.350;2022-08-30T14:03:53;26.70;74.90
41668;DHT22;27356;50.920;5.350;2022-08-30T14:06:19;26.70;75.30
41668;DHT22;27356;50.920;5.350;2022-08-30T14:08:45;26.80;74.40
41668;DHT22;27356;50.920;5.350;2022-08-30T14:11:10;26.70;74.70
41668;DHT22;27356;50.920;5.350;2022-08-30T14:13:37;26.80;74.80
41668;DHT22;27356;50.920;5.350;2022-08-30T14:16:04;27.00;74.70
41668;DHT22;27356;50.920;5.350;2022-08-30T14:18:30;27.00;74.10
41668;DHT22;27356;50.920;5.350;2022-08-30T14:20:56;26.90;74.20
41668;DHT22;27356;50.920;5.350;2022-08-30T14:23:23;26.80;74.60
41668;DHT22;27356;50.920;5.350;2022-08-30T14:25:49;26.90;73.80
41668;DHT22;27356;50.920;5.350;2022-08-30T14:28:14;26.60;74.30
41668;DHT22;27356;50.920;5.350;2022-08-30T14:30:40;26.60;75.00
41668;DHT22;27356;50.920;5.350;2022-08-30T14:33:06;26.60;74.80
41668;DHT22;27356;50.920;5.350;2022-08-30T14:35:31;26.40;74.90
41668;DHT22;27356;50.920;5.350;2022-08-30T14:37:57;26.50;75.20
41668;DHT22;27356;50.920;5.350;2022-08-30T14:40:22;26.50;74.90
41668;DHT22;27356;50.920;5.350;2022-08-30T14:42:48;26.60;74.90
41668;DHT22;27356;50.920;5.350;2022-08-30T14:45:14;26.60;75.00
41668;DHT22;27356;50.920;5.350;2022-08-30T14:47:39;26.60;74.60
41668;DHT22;27356;50.920;5.350;2022-08-30T14:50:05;26.70;74.00
41668;DHT22;27356;50.920;5.350;2022-08-30T14:52:31;26.60;74.10
41668;DHT22;27356;50.920;5.350;2022-08-30T14:54:57;26.60;74.50
41668;DHT22;27356;50.920;5.350;2022-08-30T14:57:23;26.50;74.30
41668;DHT22;27356;50.920;5.350;2022-08-30T14:59:49;26.40;74.90
41668;DHT22;27356;50.920;5.350;2022-08-30T15:02:15;26.40;74.50
41668;DHT22;27356;50.920;5.350;2022-08-30T15:04:40;26.20;74.90
41668;DHT22;27356;50.920;5.350;2022-08-30T15:07:06;26.30;74.70
41668;DHT22;27356;50.920;5.350;2022-08-30T15:09:32;26.50;74.10
41668;DHT22;27356;50.920;5.350;2022-08-30T15:11:57;26.40;74.70
41668;DHT22;27356;50.920;5.350;2022-08-30T15:14:25;26.40;74.50
41668;DHT22;27356;50.920;5.350;2022-08-30T15:16:52;26.30;74.50
41668;DHT22;27356;50.920;5.350;2022-08-30T15:19:18;26.40;74.10
41668;DHT22;27356;50.920;5.350;2022-08-30T15:21:44;26.40;74.10
41668;DHT22;27356;50.920;5.350;2022-08-30T15:24:11;26.40;74.00
41668;DHT22;27356;50.920;5.350;2022-08-30T15:26:36;26.30;74.80
41668;DHT22;27356;50.920;5.350;2022-08-30T15:29:06;26.20;74.60
41668;DHT22;27356;50.920;5.350;2022-08-30T15:31:32;26.30;74.60
41668;DHT22;27356;50.920;5.350;2022-08-30T15:33:58;26.10;74.90
41668;DHT22;27356;50.920;5.350;2022-08-30T15:36:24;26.10;74.70
41668;DHT22;27356;50.920;5.350;2022-08-30T15:38:53;26.20;75.00
41668;DHT22;27356;50.920;5.350;2022-08-30T15:41:20;26.30;74.30
41668;DHT22;27356;50.920;5.350;2022-08-30T15:43:46;26.40;74.40
41668;DHT22;27356;50.920;5.350;2022-08-30T15:46:21;26.40;75.20
41668;DHT22;27356;50.920;5.350;2022-08-30T15:48:47;26.30;75.00
41668;DHT22;27356;50.920;5.350;2022-08-30T15:51:14;26.20;75.50
41668;DHT22;27356;50.920;5.350;2022-08-30T15:53:41;26.10;75.60
41668;DHT22;27356;50.920;5.350;2022-08-30T15:56:07;26.00;75.70
41668;DHT22;27356;50.920;5.350;2022-08-30T15:58:32;26.00;75.50
41668;DHT22;27356;50.920;5.350;2022-08-30T16:00:58;25.80;75.90
41668;DHT22;27356;50.920;5.350;2022-08-30T16:03:24;25.80;76.10
41668;DHT22;27356;50.920;5.350;2022-08-30T16:05:50;25.80;76.10
41668;DHT22;27356;50.920;5.350;2022-08-30T16:08:15;26.00;75.50
41668;DHT22;27356;50.920;5.350;2022-08-30T16:10:41;26.00;75.10
41668;DHT22;27356;50.920;5.350;2022-08-30T16:13:06;26.00;75.20
41668;DHT22;27356;50.920;5.350;2022-08-30T16:15:32;26.00;75.30
41668;DHT22;27356;50.920;5.350;2022-08-30T16:17:57;26.00;75.30
41668;DHT22;27356;50.920;5.350;2022-08-30T16:20:23;25.90;75.60
41668;DHT22;27356;50.920;5.350;2022-08-30T16:22:48;25.90;75.40
41668;DHT22;27356;50.920;5.350;2022-08-30T16:25:14;25.90;75.40
41668;DHT22;27356;50.920;5.350;2022-08-30T16:27:40;25.80;75.00
41668;DHT22;27356;50.920;5.350;2022-08-30T16:30:10;25.80;75.10
41668;DHT22;27356;50.920;5.350;2022-08-30T16:35:51;25.80;75.00
41668;DHT22;27356;50.920;5.350;2022-08-30T16:41:34;25.70;75.10
41668;DHT22;27356;50.920;5.350;2022-08-30T16:44:00;25.70;75.40
41668;DHT22;27356;50.920;5.350;2022-08-30T16:46:26;25.70;75.50
41668;DHT22;27356;50.920;5.350;2022-08-30T16:48:51;25.80;75.10
41668;DHT22;27356;50.920;5.350;2022-08-30T16:51:20;25.80;74.80
41668;DHT22;27356;50.920;5.350;2022-08-30T16:53:46;25.80;75.00
41668;DHT22;27356;50.920;5.350;2022-08-30T16:56:13;25.60;75.80
41668;DHT22;27356;50.920;5.350;2022-08-30T16:58:40;25.60;76.10
41668;DHT22;27356;50.920;5.350;2022-08-30T17:01:05;25.40;76.90
41668;DHT22;27356;50.920;5.350;2022-08-30T17:03:31;25.40;76.70